Time;durP1;ratioP1;P1;durP2;ratioP2;P2;SDS_P1;SDS_P2;PMS_P1;PMS_P2;Temp;Humidity;BMP_temperature;BMP_pressure;BME280_temperature;BME280_humidity;BME280_pressure;Samples;Min_cycle;Max_cycle;Signal;HPM_P1;HPM_P2
2023/03/10 00:00:43;;;;;;;14.10;9.55;;;;;;;8.73;85.08;99273.19;5028310;28;20133;-72
2023/03/10 00:03:09;;;;;;;15.25;9.40;;;;;;;8.73;85.31;99273.19;5021801;28;20112;-73
2023/03/10 00:05:35;;;;;;;16.70;9.93;;;;;;;8.74;85.25;99282.06;5028411;28;20113;-73
2023/03/10 00:08:01;;;;;;;15.77;9.05;;;;;;;8.67;86.11;99273.75;5026032;28;20025;-72
2023/03/10 00:10:26;;;;;;;14.68;9.43;;;;;;;8.65;86.27;99280.25;5023312;28;20076;-73
2023/03/10 00:12:52;;;;;;;15.57;9.20;;;;;;;8.62;86.07;99280.56;5020491;28;20152;-73
2023/03/10 00:15:17;;;;;;;17.00;10.43;;;;;;;8.57;86.02;99286.34;5027574;28;20035;-73
2023/03/10 00:17:43;;;;;;;14.70;9.82;;;;;;;8.52;86.11;99285.09;5022125;28;20045;-73
2023/03/10 00:20:10;;;;;;;13.15;8.70;;;;;;;8.42;86.08;99279.78;5009831;28;20032;-73
2023/03/10 00:22:37;;;;;;;14.18;9.73;;;;;;;8.37;86.42;99275.88;5022818;28;20128;-73
2023/03/10 00:25:04;;;;;;;13.60;9.20;;;;;;;8.31;86.12;99263.09;5010529;28;20025;-73
2023/03/10 00:27:29;;;;;;;15.45;9.52;;;;;;;8.29;86.61;99265.09;5028301;28;20397;-73
2023/03/10 00:29:55;;;;;;;13.57;8.93;;;;;;;8.24;86.90;99267.34;5026711;28;20040;-72
2023/03/10 00:32:20;;;;;;;15.57;9.32;;;;;;;8.20;87.32;99265.91;5023492;28;20120;-71
2023/03/10 00:34:45;;;;;;;18.42;9.77;;;;;;;8.17;88.14;99274.22;5004162;28;20029;-72
2023/03/10 00:37:11;;;;;;;15.18;9.98;;;;;;;8.08;88.40;99278.59;5025707;28;20033;-73
2023/03/10 00:39:36;;;;;;;18.55;10.32;;;;;;;8.05;88.64;99278.88;5027540;28;20026;-73
2023/03/10 00:42:02;;;;;;;15.20;9.93;;;;;;;7.99;88.50;99267.94;5027708;28;20027;-73
2023/03/10 00:44:27;;;;;;;13.70;9.25;;;;;;;8.02;88.79;99283.66;5027395;28;20116;-72
2023/03/10 00:46:55;;;;;;;16.58;9.20;;;;;;;7.93;89.61;99273.88;5028082;28;20025;-72
2023/03/10 00:49:21;;;;;;;17.65;10.07;;;;;;;7.91;89.63;99270.50;5027728;28;20120;-72
2023/03/10 00:51:46;;;;;;;15.20;9.45;;;;;;;7.88;89.45;99276.09;5017504;28;20036;-71
2023/03/10 00:54:12;;;;;;;17.70;10.35;;;;;;;7.78;89.09;99269.94;5027406;28;20104;-71
2023/03/10 00:56:37;;;;;;;16.40;9.98;;;;;;;7.81;89.11;99275.00;5017438;28;20036;-72
2023/03/10 00:59:03;;;;;;;13.77;9.38;;;;;;;7.74;90.06;99263.22;5017758;28;20024;-73
2023/03/10 01:01:34;;;;;;;17.13;10.20;;;;;;;7.66;90.48;99258.59;5026611;28;20091;-73
2023/03/10 01:04:06;;;;;;;16.48;9.77;;;;;;;7.63;90.60;99250.88;5021487;28;20105;-73
2023/03/10 01:06:32;;;;;;;15.35;9.45;;;;;;;7.69;90.07;99247.63;5027454;28;20052;-71
2023/03/10 01:08:58;;;;;;;13.52;8.60;;;;;;;7.74;90.91;99258.69;5027875;28;20041;-72
2023/03/10 01:11:25;;;;;;;14.15;8.93;;;;;;;7.75;91.45;99249.72;5006959;28;20474;-72
2023/03/10 01:13:52;;;;;;;12.60;8.98;;;;;;;7.77;91.57;99236.25;5027583;28;20025;-72
2023/03/10 01:16:17;;;;;;;11.40;8.05;;;;;;;7.87;92.27;99245.06;5020778;28;20022;-72
2023/03/10 01:18:43;;;;;;;12.95;8.30;;;;;;;7.96;92.34;99245.03;5021146;28;20034;-72
2023/03/10 01:21:16;;;;;;;12.20;6.93;;;;;;;8.01;92.01;99241.94;5014518;28;20038;-72
2023/03/10 01:23:42;;;;;;;13.77;7.53;;;;;;;8.06;92.38;99234.34;5022406;28;20033;-72
2023/03/10 01:26:07;;;;;;;12.40;7.75;;;;;;;8.12;92.56;99231.91;5020493;28;20021;-73
2023/03/10 01:28:32;;;;;;;12.45;7.68;;;;;;;8.19;92.33;99226.84;5023712;28;20361;-72
2023/03/10 01:30:58;;;;;;;12.18;7.90;;;;;;;8.24;91.97;99225.47;5020894;28;20029;-72
2023/03/10 01:33:24;;;;;;;12.65;7.78;;;;;;;8.30;91.98;99211.50;5002511;28;20050;-72
2023/03/10 01:35:49;;;;;;;13.40;8.43;;;;;;;8.34;91.88;99210.22;5009391;28;20365;-72
2023/03/10 01:38:14;;;;;;;13.63;8.55;;;;;;;8.44;92.02;99211.03;5017443;28;20030;-72
2023/03/10 01:40:47;;;;;;;13.02;8.40;;;;;;;8.48;91.45;99207.06;5026247;28;20041;-73
2023/03/10 01:43:19;;;;;;;14.25;8.80;;;;;;;8.55;91.22;99201.97;5021057;28;20494;-73
2023/03/10 01:45:44;;;;;;;13.90;9.00;;;;;;;8.56;90.87;99200.97;5022982;28;20029;-76
2023/03/10 01:48:15;;;;;;;15.52;9.68;;;;;;;8.58;90.52;99197.16;4999643;28;20044;-73
2023/03/10 01:50:44;;;;;;;13.88;9.00;;;;;;;8.60;89.87;99199.69;5016933;28;20087;-73
2023/03/10 01:53:10;;;;;;;14.32;9.15;;;;;;;8.54;89.93;99173.53;5026596;28;20056;-73
2023/03/10 01:55:45;;;;;;;13.60;9.02;;;;;;;8.61;89.98;99190.69;5027245;28;20040;-73
2023/03/10 01:58:11;;;;;;;15.38;9.00;;;;;;;8.52;90.20;99171.03;5018774;28;20606;-73
2023/03/10 02:00:39;;;;;;;19.50;10.07;;;;;;;8.52;89.89;99175.53;5015334;28;20029;-72
2023/03/10 02:03:28;;;;;;;14.38;9.38;;;;;;;8.58;89.91;99186.47;5015312;28;20029;-72
2023/03/10 02:05:57;;;;;;;14.68;8.52;;;;;;;8.57;90.18;99171.44;5009919;28;20033;-72
2023/03/10 02:08:28;;;;;;;13.98;8.52;;;;;;;8.60;90.68;99178.28;5017022;28;20037;-72
2023/03/10 02:10:55;;;;;;;13.30;8.80;;;;;;;8.63;90.83;99178.00;5016435;28;20041;-73
2023/03/10 02:13:21;;;;;;;12.93;8.48;;;;;;;8.61;91.44;99164.78;5005103;28;20025;-72
2023/03/10 02:15:46;;;;;;;16.15;7.90;;;;;;;8.67;92.40;99158.00;5029536;28;20119;-72
2023/03/10 02:18:14;;;;;;;15.00;8.25;;;;;;;8.70;92.86;99158.53;5027020;28;20090;-72
2023/03/10 02:21:07;;;;;;;11.70;7.30;;;;;;;8.71;93.91;99151.38;5012639;28;20040;-73
2023/03/10 02:23:38;;;;;;;13.65;7.57;;;;;;;8.77;93.49;99156.94;4994865;28;20045;-74
2023/03/10 02:26:16;;;;;;;11.30;7.57;;;;;;;8.79;94.12;99154.97;5007656;28;20057;-73
2023/03/10 02:28:42;;;;;;;11.77;7.32;;;;;;;8.75;94.19;99137.56;5029827;28;20069;-72
2023/03/10 02:31:08;;;;;;;10.82;6.85;;;;;;;8.86;94.46;99152.50;5029936;28;20061;-73
2023/03/10 02:33:35;;;;;;;10.38;6.72;;;;;;;8.84;94.56;99144.63;5028282;28;20045;-74
2023/03/10 02:36:15;;;;;;;10.60;7.03;;;;;;;8.87;95.52;99140.84;5012351;28;20507;-73
2023/03/10 02:38:41;;;;;;;12.68;6.60;;;;;;;8.87;95.41;99135.50;5014784;28;20022;-72
2023/03/10 02:41:19;;;;;;;9.70;7.00;;;;;;;8.86;95.48;99129.31;5019721;28;20041;-73
2023/03/10 02:43:46;;;;;;;10.10;6.30;;;;;;;8.83;95.98;99120.72;5030328;28;20030;-72
2023/03/10 02:46:12;;;;;;;10.93;6.40;;;;;;;8.89;95.95;99126.31;5009865;28;20033;-73
2023/03/10 02:48:38;;;;;;;10.10;6.43;;;;;;;8.88;96.15;99127.31;5030277;28;20716;-74
2023/03/10 02:51:09;;;;;;;9.23;6.13;;;;;;;8.88;96.56;99121.13;5029402;28;20052;-73
2023/03/10 02:53:34;;;;;;;9.88;5.78;;;;;;;8.90;96.32;99119.16;5030600;28;20387;-72
2023/03/10 02:56:00;;;;;;;8.63;5.82;;;;;;;8.88;96.76;99111.28;5029963;28;20037;-72
2023/03/10 02:58:28;;;;;;;9.13;6.05;;;;;;;8.89;96.70;99114.78;5012500;28;20116;-72
2023/03/10 03:00:54;;;;;;;8.13;6.07;;;;;;;8.82;97.61;99105.69;5005613;28;20116;-72
2023/03/10 03:03:20;;;;;;;10.20;6.45;;;;;;;8.89;97.55;99109.44;5024893;28;20459;-73
2023/03/10 03:05:46;;;;;;;9.30;6.15;;;;;;;8.86;97.72;99099.91;5025515;28;20476;-72
2023/03/10 03:08:12;;;;;;;12.25;6.35;;;;;;;8.82;98.01;99093.19;5026117;28;20064;-73
2023/03/10 03:10:38;;;;;;;9.68;6.28;;;;;;;8.89;98.11;99101.41;5022466;28;20476;-73
2023/03/10 03:13:04;;;;;;;8.15;6.35;;;;;;;8.87;98.44;99101.56;5025778;28;20030;-72
2023/03/10 03:15:30;;;;;;;12.63;7.05;;;;;;;8.85;98.82;99100.03;5020728;28;20469;-72
2023/03/10 03:17:58;;;;;;;10.48;6.68;;;;;;;8.86;98.39;99099.03;5002903;28;20545;-73
2023/03/10 03:20:26;;;;;;;9.75;5.80;;;;;;;8.86;99.30;99096.38;5027139;28;20518;-73
2023/03/10 03:22:51;;;;;;;9.93;6.45;;;;;;;8.84;99.15;99095.69;5023659;28;20100;-73
2023/03/10 03:25:19;;;;;;;11.45;6.82;;;;;;;8.82;99.30;99089.66;5011344;28;20464;-71
2023/03/10 03:27:45;;;;;;;11.50;7.38;;;;;;;8.71;99.89;99071.19;5022186;28;20033;-72
2023/03/10 03:30:20;;;;;;;13.50;8.85;;;;;;;8.76;100.00;99077.75;5026913;28;20033;-72
2023/03/10 03:32:46;;;;;;;14.55;9.57;;;;;;;8.68;100.00;99068.81;5004429;28;20518;-72
2023/03/10 03:35:18;;;;;;;17.80;10.15;;;;;;;8.70;100.00;99080.19;5027848;28;20112;-72
2023/03/10 03:37:44;;;;;;;19.45;11.93;;;;;;;8.59;100.00;99064.38;5019358;28;20034;-73
2023/03/10 03:40:11;;;;;;;22.58;13.27;;;;;;;8.65;100.00;99077.16;5020465;28;20025;-72
2023/03/10 03:42:44;;;;;;;24.70;13.63;;;;;;;8.65;100.00;99080.63;5024431;28;20033;-72
2023/03/10 03:45:11;;;;;;;21.23;12.95;;;;;;;8.61;100.00;99065.91;5010612;28;20399;-72
2023/03/10 03:47:37;;;;;;;17.85;12.45;;;;;;;8.60;100.00;99072.25;5023363;28;20083;-72
2023/03/10 03:50:03;;;;;;;23.25;12.95;;;;;;;8.57;100.00;99072.56;5029306;28;20034;-72
2023/03/10 03:52:29;;;;;;;16.58;11.27;;;;;;;8.57;100.00;99067.22;5015148;28;20552;-72
2023/03/10 03:54:54;;;;;;;13.45;9.73;;;;;;;8.54;100.00;99045.28;5027857;28;20030;-72
2023/03/10 03:57:20;;;;;;;11.52;7.93;;;;;;;8.60;100.00;99047.34;5008595;28;20506;-72
2023/03/10 03:59:46;;;;;;;13.05;8.88;;;;;;;8.60;100.00;99042.00;5003079;28;20021;-72
2023/03/10 04:02:11;;;;;;;16.55;10.30;;;;;;;8.58;100.00;99031.47;5027148;28;20036;-66
2023/03/10 04:04:36;;;;;;;15.13;9.40;;;;;;;8.60;100.00;99029.50;5023092;28;20040;-66
2023/03/10 04:07:02;;;;;;;20.83;14.02;;;;;;;8.56;100.00;99021.94;5010613;28;20040;-66
2023/03/10 04:09:28;;;;;;;22.05;12.98;;;;;;;8.54;100.00;99013.22;5002567;28;20053;-67
2023/03/10 04:11:54;;;;;;;17.90;11.75;;;;;;;8.63;100.00;99031.03;5008140;28;20026;-65
2023/03/10 04:14:20;;;;;;;18.02;10.10;;;;;;;8.67;100.00;99021.69;5022152;28;20037;-66
2023/03/10 04:16:45;;;;;;;16.83;9.32;;;;;;;8.66;100.00;99020.88;5017736;28;20036;-66
2023/03/10 04:19:11;;;;;;;13.07;9.05;;;;;;;8.53;100.00;99003.53;5009817;28;20033;-66
2023/03/10 04:21:37;;;;;;;15.23;9.27;;;;;;;8.61;100.00;99009.78;5024125;28;20041;-66
2023/03/10 04:24:03;;;;;;;16.20;9.35;;;;;;;8.60;100.00;99017.97;5014209;28;20029;-66
2023/03/10 04:26:29;;;;;;;13.88;8.02;;;;;;;8.53;100.00;98999.03;5026077;28;20037;-73
2023/03/10 04:28:58;;;;;;;12.35;8.63;;;;;;;8.53;100.00;99000.88;5025467;28;20472;-72
2023/03/10 04:31:24;;;;;;;17.73;9.02;;;;;;;8.57;100.00;99019.13;5012194;28;20387;-64
2023/03/10 04:33:50;;;;;;;13.27;9.55;;;;;;;8.55;100.00;99015.75;5011572;28;20053;-65
2023/03/10 04:36:17;;;;;;;15.93;9.60;;;;;;;8.50;100.00;99018.06;5005104;28;20479;-67
2023/03/10 04:38:43;;;;;;;15.68;9.57;;;;;;;8.41;100.00;99004.75;5011079;28;20464;-67
2023/03/10 04:41:09;;;;;;;16.88;10.70;;;;;;;8.44;100.00;99007.13;5009708;28;20028;-67
2023/03/10 04:43:34;;;;;;;16.02;10.48;;;;;;;8.35;100.00;98997.38;5007304;28;20022;-66
2023/03/10 04:46:00;;;;;;;17.38;9.57;;;;;;;8.42;100.00;99006.47;5027290;28;20056;-66
2023/03/10 04:48:26;;;;;;;17.63;11.02;;;;;;;8.37;100.00;99004.25;5028017;28;20395;-67
2023/03/10 04:51:00;;;;;;;17.73;11.27;;;;;;;8.33;100.00;99010.03;5001969;28;20488;-65
2023/03/10 04:53:27;;;;;;;16.17;10.52;;;;;;;8.27;100.00;98994.63;5004633;28;20087;-66
2023/03/10 04:55:52;;;;;;;17.63;10.48;;;;;;;8.27;100.00;99002.63;5004671;28;20678;-67
2023/03/10 04:58:19;;;;;;;14.60;10.20;;;;;;;8.23;100.00;98996.78;5005968;28;20032;-66
2023/03/10 05:00:45;;;;;;;18.70;11.30;;;;;;;8.01;100.00;98966.97;5005331;28;20668;-66
2023/03/10 05:03:10;;;;;;;17.90;10.73;;;;;;;8.13;100.00;98990.59;5003880;28;20026;-66
2023/03/10 05:05:36;;;;;;;18.65;11.90;;;;;;;8.06;100.00;98986.03;5016685;28;20038;-66
2023/03/10 05:08:03;;;;;;;17.55;12.00;;;;;;;8.00;100.00;98978.63;5003321;28;20484;-67
2023/03/10 05:10:29;;;;;;;21.75;14.00;;;;;;;8.03;100.00;98989.84;5001183;28;20285;-67
2023/03/10 05:12:54;;;;;;;22.00;13.20;;;;;;;7.87;100.00;98960.31;4999680;28;20046;-66
2023/03/10 05:15:20;;;;;;;21.08;12.02;;;;;;;7.73;100.00;98942.16;5005807;28;20365;-67
2023/03/10 05:17:46;;;;;;;24.95;13.25;;;;;;;7.78;100.00;98958.56;5000388;28;20037;-67
2023/03/10 05:20:13;;;;;;;22.38;13.25;;;;;;;7.84;100.00;98975.78;5003376;28;20021;-66
2023/03/10 05:22:38;;;;;;;22.65;13.27;;;;;;;7.81;100.00;98982.28;5003567;28;20087;-66
2023/03/10 05:25:05;;;;;;;23.77;13.43;;;;;;;7.80;100.00;98977.91;5004547;28;20021;-66
2023/03/10 05:27:34;;;;;;;20.42;12.50;;;;;;;7.75;100.00;98974.88;4999791;28;20465;-67
2023/03/10 05:30:00;;;;;;;21.77;12.05;;;;;;;7.72;100.00;98976.97;5003271;28;20034;-73
2023/03/10 05:32:26;;;;;;;23.65;12.90;;;;;;;7.78;100.00;98982.56;5019943;28;20052;-72
2023/03/10 05:34:51;;;;;;;21.88;12.43;;;;;;;7.79;100.00;98988.72;5020346;28;20487;-73
2023/03/10 05:37:17;;;;;;;20.17;12.65;;;;;;;7.82;100.00;98983.94;5000693;28;20030;-73
2023/03/10 05:39:43;;;;;;;16.95;11.25;;;;;;;7.86;100.00;98976.47;5003781;28;20049;-72
2023/03/10 05:42:11;;;;;;;17.75;11.15;;;;;;;7.89;100.00;98973.50;5021513;28;20034;-72
2023/03/10 05:44:37;;;;;;;18.77;11.45;;;;;;;7.87;100.00;98964.81;5001607;28;20038;-72
2023/03/10 05:47:03;;;;;;;17.75;11.35;;;;;;;7.95;100.00;98973.75;5020292;28;20045;-71
2023/03/10 05:49:28;;;;;;;20.85;12.60;;;;;;;8.01;100.00;98972.31;5024724;28;20025;-73
2023/03/10 05:51:54;;;;;;;17.55;12.57;;;;;;;7.98;100.00;98961.91;5017383;28;20037;-73
2023/03/10 05:54:19;;;;;;;17.67;11.90;;;;;;;8.07;100.00;98967.22;5011989;28;20081;-71
2023/03/10 05:56:44;;;;;;;18.05;12.27;;;;;;;8.13;100.00;98963.09;4998997;28;20061;-72
2023/03/10 05:59:10;;;;;;;20.55;13.13;;;;;;;8.12;100.00;98958.72;5021769;28;20029;-73
2023/03/10 06:01:36;;;;;;;19.77;12.73;;;;;;;8.20;100.00;98957.00;5014394;28;20022;-73
2023/03/10 06:04:01;;;;;;;19.70;12.82;;;;;;;8.19;100.00;98952.63;5009369;28;20036;-73
2023/03/10 06:06:27;;;;;;;20.77;12.82;;;;;;;8.28;100.00;98950.88;5014227;28;20514;-72
2023/03/10 06:08:53;;;;;;;19.20;11.52;;;;;;;8.24;100.00;98925.47;5014919;28;20132;-74
2023/03/10 06:11:18;;;;;;;22.67;13.88;;;;;;;8.28;100.00;98929.53;5011478;28;20360;-74
2023/03/10 06:13:44;;;;;;;29.55;16.13;;;;;;;8.33;100.00;98929.91;5007134;28;20037;-74
2023/03/10 06:16:10;;;;;;;44.30;22.98;;;;;;;8.37;100.00;98925.94;5022830;28;20029;-72
2023/03/10 06:18:35;;;;;;;46.85;23.40;;;;;;;8.40;100.00;98914.94;5014360;28;20032;-73
2023/03/10 06:21:08;;;;;;;41.92;21.23;;;;;;;8.44;100.00;98911.81;5015087;28;20487;-70
2023/03/10 06:23:34;;;;;;;38.60;21.25;;;;;;;8.53;100.00;98916.22;5015419;28;20029;-73
2023/03/10 06:26:18;;;;;;;30.48;17.90;;;;;;;8.57;100.00;98911.38;5018777;28;20443;-73
2023/03/10 06:28:45;;;;;;;28.43;15.40;;;;;;;8.57;100.00;98914.91;5018982;28;20053;-72
2023/03/10 06:31:17;;;;;;;21.02;13.63;;;;;;;8.63;100.00;98903.59;5027514;28;20073;-72
2023/03/10 06:33:43;;;;;;;20.85;13.43;;;;;;;8.74;100.00;98927.38;5014727;28;20054;-72
2023/03/10 06:36:12;;;;;;;18.45;12.88;;;;;;;8.81;100.00;98911.56;5024459;28;20476;-73
2023/03/10 06:38:39;;;;;;;26.75;13.85;;;;;;;8.90;100.00;98924.00;5018275;28;20034;-73
2023/03/10 06:41:05;;;;;;;22.33;14.18;;;;;;;8.97;100.00;98928.53;5010173;28;20084;-73
2023/03/10 06:43:32;;;;;;;23.25;14.10;;;;;;;9.03;100.00;98919.06;5018796;28;20487;-73
2023/03/10 06:45:57;;;;;;;21.27;14.10;;;;;;;9.13;100.00;98919.78;5018813;28;20052;-73
2023/03/10 06:48:23;;;;;;;21.33;13.77;;;;;;;9.23;100.00;98926.66;5019942;28;20029;-73
2023/03/10 06:50:49;;;;;;;21.63;14.02;;;;;;;9.23;100.00;98915.94;5014412;28;20060;-72
2023/03/10 06:53:19;;;;;;;18.88;13.45;;;;;;;9.39;100.00;98919.69;5018901;28;20502;-71
2023/03/10 06:56:03;;;;;;;21.63;12.75;;;;;;;9.47;100.00;98919.72;5023873;28;20029;-72
2023/03/10 06:58:31;;;;;;;22.17;12.98;;;;;;;9.57;100.00;98915.09;5024719;28;20030;-72
2023/03/10 07:00:57;;;;;;;17.70;12.45;;;;;;;9.68;100.00;98914.78;5018689;28;20544;-73
2023/03/10 07:03:25;;;;;;;19.20;12.65;;;;;;;9.80;100.00;98914.31;5014009;28;20025;-72
2023/03/10 07:05:51;;;;;;;19.10;12.60;;;;;;;9.93;100.00;98912.00;5021060;28;20029;-73
2023/03/10 07:08:17;;;;;;;20.23;12.80;;;;;;;10.10;99.69;98889.63;5020474;28;20040;-73
2023/03/10 07:10:43;;;;;;;22.65;14.07;;;;;;;10.33;99.26;98920.13;5022135;28;20388;-72
2023/03/10 07:13:12;;;;;;;33.78;18.17;;;;;;;10.49;99.50;98922.81;5018630;28;20084;-73
2023/03/10 07:15:38;;;;;;;32.25;18.55;;;;;;;10.62;99.34;98915.09;5013384;28;20022;-73
2023/03/10 07:18:03;;;;;;;31.77;16.65;;;;;;;10.79;98.82;98918.56;5023923;28;20521;-73
2023/03/10 07:20:29;;;;;;;34.58;16.98;;;;;;;10.96;98.15;98913.00;5002718;28;20071;-73
2023/03/10 07:22:54;;;;;;;27.90;16.00;;;;;;;11.12;97.66;98910.28;5023099;28;20040;-74
2023/03/10 07:25:20;;;;;;;30.23;17.55;;;;;;;11.29;97.20;98903.03;5015351;28;20026;-67
2023/03/10 07:27:45;;;;;;;20.70;13.80;;;;;;;11.55;96.50;98907.06;5019789;28;20777;-67
2023/03/10 07:30:11;;;;;;;21.83;11.18;;;;;;;11.83;94.88;98904.78;5006204;28;20036;-68
2023/03/10 07:32:37;;;;;;;13.00;9.32;;;;;;;12.14;93.03;98904.75;5009263;28;20034;-67
2023/03/10 07:35:02;;;;;;;13.95;8.90;;;;;;;12.63;88.49;98906.03;5021632;28;20032;-67
2023/03/10 07:37:28;;;;;;;11.20;7.75;;;;;;;12.75;87.99;98880.34;5020683;28;20025;-67
2023/03/10 07:39:54;;;;;;;12.57;8.38;;;;;;;13.21;86.25;98896.22;5023776;28;20021;-67
2023/03/10 07:42:20;;;;;;;14.60;9.00;;;;;;;13.33;83.09;98848.09;5004058;28;20030;-67
2023/03/10 07:44:45;;;;;;;12.63;7.88;;;;;;;14.18;77.91;98898.41;5013452;28;20033;-66
2023/03/10 07:47:11;;;;;;;15.45;10.07;;;;;;;14.46;75.67;98896.66;5022584;28;20029;-66
2023/03/10 07:49:36;;;;;;;13.80;9.60;;;;;;;14.75;73.60;98874.91;5010867;28;20042;-67
2023/03/10 07:52:02;;;;;;;16.00;9.10;;;;;;;15.08;72.14;98865.16;5026476;28;20467;-67
2023/03/10 07:54:28;;;;;;;12.07;8.48;;;;;;;15.78;69.15;98900.88;5030268;28;20036;-67
2023/03/10 07:56:53;;;;;;;13.05;8.95;;;;;;;16.28;66.33;98863.56;5007181;28;20077;-68
2023/03/10 07:59:18;;;;;;;13.85;8.02;;;;;;;17.11;63.03;98861.91;5026324;28;20025;-68
2023/03/10 08:01:44;;;;;;;9.73;7.80;;;;;;;18.47;58.67;98875.91;5026607;28;20080;-68
2023/03/10 08:04:11;;;;;;;13.90;9.10;;;;;;;19.08;56.36;98873.31;5012536;28;20029;-67
2023/03/10 08:06:37;;;;;;;12.63;8.75;;;;;;;19.64;53.48;98866.66;5028563;28;20515;-66
2023/03/10 08:09:03;;;;;;;12.70;7.75;;;;;;;20.12;52.50;98853.91;5011049;28;20029;-67
2023/03/10 08:11:28;;;;;;;12.05;8.05;;;;;;;20.45;51.00;98837.09;5027713;28;20025;-67
2023/03/10 08:13:54;;;;;;;13.70;8.40;;;;;;;20.82;49.78;98849.44;5024355;28;20032;-67
2023/03/10 08:16:22;;;;;;;10.88;7.57;;;;;;;21.30;49.13;98843.78;5024314;28;20044;-68
2023/03/10 08:18:50;;;;;;;13.13;8.27;;;;;;;21.75;46.89;98840.16;5027366;28;20048;-67
2023/03/10 08:21:16;;;;;;;10.73;7.80;;;;;;;21.65;47.17;98839.09;5020813;28;20109;-66
2023/03/10 08:23:42;;;;;;;13.93;9.10;;;;;;;21.62;47.07;98845.03;5021342;28;20112;-67
2023/03/10 08:26:12;;;;;;;12.40;8.98;;;;;;;21.65;46.90;98847.28;5028526;28;20147;-67
2023/03/10 08:28:38;;;;;;;17.88;10.70;;;;;;;21.45;47.32;98846.84;5030933;28;20391;-66
2023/03/10 08:31:12;;;;;;;13.55;9.70;;;;;;;20.83;48.34;98818.41;5023556;28;20026;-67
2023/03/10 08:33:38;;;;;;;16.33;9.80;;;;;;;20.38;49.66;98843.69;5029755;28;20388;-67
2023/03/10 08:36:19;;;;;;;20.98;10.73;;;;;;;20.12;50.54;98863.97;5029477;28;20156;-66
2023/03/10 08:38:45;;;;;;;18.02;12.05;;;;;;;19.52;51.62;98854.88;5016017;28;20065;-67
2023/03/10 08:41:22;;;;;;;14.60;10.68;;;;;;;18.91;53.64;98835.03;4996183;28;20033;-67
2023/03/10 08:43:49;;;;;;;16.20;8.18;;;;;;;18.50;55.08;98853.75;5009307;28;20030;-66
2023/03/10 08:46:16;;;;;;;11.07;5.78;;;;;;;18.22;54.47;98857.91;5003596;28;20025;-66
2023/03/10 08:48:41;;;;;;;7.35;5.07;;;;;;;17.66;55.25;98834.22;5015128;28;20144;-67
2023/03/10 08:51:07;;;;;;;7.00;4.88;;;;;;;17.50;56.21;98848.25;5022691;28;20033;-67
2023/03/10 08:53:34;;;;;;;8.68;4.97;;;;;;;17.17;56.66;98825.84;5012793;28;20021;-68
2023/03/10 08:56:00;;;;;;;12.15;5.65;;;;;;;17.12;57.89;98857.31;5016306;28;20068;-68
2023/03/10 08:58:25;;;;;;;9.25;5.00;;;;;;;16.94;58.35;98851.72;5009306;28;20056;-68
2023/03/10 09:00:51;;;;;;;11.02;4.80;;;;;;;16.75;59.75;98855.28;5011657;28;20025;-68
2023/03/10 09:03:17;;;;;;;7.32;4.43;;;;;;;16.48;61.42;98821.97;5013898;28;20468;-69
2023/03/10 09:05:42;;;;;;;9.80;4.43;;;;;;;16.34;62.99;98835.69;5010796;28;20499;-69
2023/03/10 09:08:08;;;;;;;7.47;4.20;;;;;;;16.22;67.08;98854.38;5000582;28;20510;-71
2023/03/10 09:10:35;;;;;;;7.57;4.18;;;;;;;16.08;69.53;98859.97;5000700;28;20032;-72
2023/03/10 09:13:01;;;;;;;10.13;4.60;;;;;;;15.86;72.41;98860.13;4996343;28;20485;-73
2023/03/10 09:15:26;;;;;;;8.40;4.25;;;;;;;15.44;74.74;98810.91;4999421;28;20071;-72
2023/03/10 09:17:52;;;;;;;12.52;4.72;;;;;;;15.53;77.11;98840.28;5012245;28;20030;-71
2023/03/10 09:20:21;;;;;;;6.20;4.55;;;;;;;15.30;79.19;98826.22;5019408;28;20033;-72
2023/03/10 09:22:47;;;;;;;9.20;4.63;;;;;;;15.27;79.76;98836.59;5016973;28;20037;-71
2023/03/10 09:25:12;;;;;;;7.85;4.75;;;;;;;15.10;80.54;98828.00;5021109;28;20022;-71
2023/03/10 09:27:38;;;;;;;8.35;4.57;;;;;;;14.77;81.67;98778.34;4993264;28;20022;-73
2023/03/10 09:30:04;;;;;;;10.18;4.72;;;;;;;15.00;82.56;98821.28;5018565;28;20041;-71
2023/03/10 09:32:30;;;;;;;9.75;5.43;;;;;;;14.75;81.83;98787.69;5018760;28;20443;-70
2023/03/10 09:34:55;;;;;;;9.50;5.95;;;;;;;14.72;81.78;98782.69;5011415;28;20026;-70
2023/03/10 09:37:21;;;;;;;10.43;6.70;;;;;;;14.71;81.48;98792.69;5018771;28;20078;-73
2023/03/10 09:39:46;;;;;;;11.45;6.07;;;;;;;14.80;82.08;98802.25;5016256;28;20034;-74
2023/03/10 09:42:17;;;;;;;11.43;6.22;;;;;;;14.79;81.42;98806.00;5003093;28;20021;-74
2023/03/10 09:44:52;;;;;;;11.07;6.22;;;;;;;14.78;81.85;98800.81;4996732;28;20379;-71
2023/03/10 09:47:51;;;;;;;11.98;6.35;;;;;;;14.75;82.51;98798.50;5017538;28;20021;-71
2023/03/10 09:50:22;;;;;;;12.23;7.05;;;;;;;14.73;82.58;98795.16;4980206;28;21579;-70
2023/03/10 09:53:15;;;;;;;12.15;6.20;;;;;;;14.72;82.36;98798.88;4998938;28;20120;-71
2023/03/10 09:55:43;;;;;;;12.45;6.07;;;;;;;14.48;82.95;98746.22;5016240;28;20071;-71
2023/03/10 09:58:31;;;;;;;12.52;6.50;;;;;;;14.76;83.12;98782.09;4996386;28;20061;-71
2023/03/10 10:00:58;;;;;;;13.68;6.95;;;;;;;14.69;82.49;98756.94;5014042;28;20393;-73
2023/03/10 10:03:46;;;;;;;16.45;7.32;;;;;;;14.92;83.24;98778.25;5018002;28;20491;-71
2023/03/10 10:06:32;;;;;;;11.15;5.88;;;;;;;15.02;82.47;98776.84;5015502;28;20068;-71
2023/03/10 10:09:02;;;;;;;10.95;6.55;;;;;;;15.07;80.71;98770.84;5005978;28;20041;-71
2023/03/10 10:11:27;;;;;;;8.98;6.15;;;;;;;14.88;80.60;98742.72;5016880;28;20053;-71
2023/03/10 10:14:22;;;;;;;12.35;6.97;;;;;;;15.00;79.40;98770.00;5012623;28;20076;-71
2023/03/10 10:16:56;;;;;;;15.63;7.65;;;;;;;14.95;78.39;98767.03;5018772;28;20563;-70
2023/03/10 10:19:24;;;;;;;9.07;7.13;;;;;;;14.88;78.21;98761.63;5018264;28;20029;-72
2023/03/10 10:21:59;;;;;;;9.88;7.15;;;;;;;14.89;78.04;98757.03;5019622;28;20041;-70
2023/03/10 10:24:24;;;;;;;;;;;;;;;14.84;77.65;98763.06;5013541;28;20025;-70
2023/03/10 10:26:50;;;;;;;13.13;8.38;;;;;;;14.83;79.25;98728.97;5019248;28;20389;-69
2023/03/10 10:29:22;;;;;;;13.00;7.80;;;;;;;15.79;75.00;98745.75;4998803;28;20060;-70
2023/03/10 10:32:11;;;;;;;11.40;7.32;;;;;;;17.38;67.53;98733.38;5025172;28;20017;-70
2023/03/10 10:34:48;;;;;;;13.32;7.25;;;;;;;18.09;61.78;98707.69;5020058;28;20057;-69
2023/03/10 10:37:41;;;;;;;12.27;7.38;;;;;;;18.54;60.03;98705.63;5027459;28;20029;-68
2023/03/10 10:40:24;;;;;;;10.40;6.30;;;;;;;19.40;57.27;98688.09;5028456;28;20029;-70
2023/03/10 10:42:55;;;;;;;9.13;5.82;;;;;;;19.71;55.87;98696.03;5019508;28;20386;-76
2023/03/10 10:45:29;;;;;;;9.95;6.45;;;;;;;19.58;56.08;98709.00;5025669;28;20539;-76
2023/03/10 10:47:55;;;;;;;9.40;7.13;;;;;;;19.30;57.00;98704.16;5008129;28;20031;-77
2023/03/10 10:50:29;;;;;;;9.48;6.15;;;;;;;18.91;58.42;98699.19;5007752;28;20053;-69
2023/03/10 10:53:17;;;;;;;12.93;7.00;;;;;;;18.56;58.80;98708.97;5007225;28;20487;-76
2023/03/10 10:55:44;;;;;;;12.00;6.30;;;;;;;18.05;60.65;98670.38;5026681;28;20486;-76
2023/03/10 10:58:24;;;;;;;7.55;5.75;;;;;;;17.98;61.67;98683.16;5032393;28;20029;-77
2023/03/10 11:00:59;;;;;;;13.20;7.07;;;;;;;17.72;62.17;98672.53;5010446;28;20029;-76
2023/03/10 11:03:37;;;;;;;12.00;6.75;;;;;;;17.54;64.07;98673.28;5012917;28;20113;-76
2023/03/10 11:06:28;;;;;;;9.07;5.18;;;;;;;17.35;64.62;98649.00;5023724;28;20471;-77
2023/03/10 11:09:21;;;;;;;10.50;5.57;;;;;;;17.49;64.43;98666.84;5009579;28;20036;-76
2023/03/10 11:12:07;;;;;;;7.47;4.15;;;;;;;17.41;64.77;98661.69;5018223;28;20761;-74
2023/03/10 11:14:38;;;;;;;8.90;4.18;;;;;;;17.26;63.63;98653.84;5019229;28;20426;-77
2023/03/10 11:17:22;;;;;;;12.10;4.05;;;;;;;17.20;63.36;98645.75;5026848;28;20026;-76
2023/03/10 11:19:59;;;;;;;8.35;4.47;;;;;;;17.02;63.79;98646.47;5028175;28;20037;-76
2023/03/10 11:23:02;;;;;;;7.70;3.70;;;;;;;16.95;64.16;98642.13;5004095;28;20042;-77
2023/03/10 11:25:35;;;;;;;11.25;4.68;;;;;;;16.83;65.18;98624.91;5011949;28;20064;-77
2023/03/10 11:28:19;;;;;;;8.63;5.03;;;;;;;16.80;65.14;98634.28;5021577;28;20116;-77
2023/03/10 11:31:11;;;;;;;8.13;4.55;;;;;;;16.72;65.77;98637.25;5030362;28;20785;-76
2023/03/10 11:34:10;;;;;;;7.28;4.88;;;;;;;16.59;65.92;98644.56;5015653;28;20504;-77